createdAt,value
2019-04-14T00:01:26.445Z,3.90
2019-04-14T00:03:05.079Z,3.90
2019-04-14T00:04:44.334Z,3.90
2019-04-14T00:06:18.035Z,3.80
2019-04-14T00:07:51.628Z,3.80
2019-04-14T00:09:25.168Z,3.80
2019-04-14T00:10:57.426Z,3.80
2019-04-14T00:12:29.560Z,3.90
2019-04-14T00:14:03.099Z,3.90
2019-04-14T00:15:40.473Z,3.90
2019-04-14T00:17:10.709Z,3.80
2019-04-14T00:18:43.066Z,3.90
2019-04-14T00:20:16.352Z,3.90
2019-04-14T00:21:49.953Z,3.90
2019-04-14T00:23:22.261Z,3.90
2019-04-14T00:24:55.355Z,3.90
2019-04-14T00:26:29.610Z,3.90
2019-04-14T00:28:02.963Z,3.90
2019-04-14T00:29:35.274Z,3.90
2019-04-14T00:31:08.660Z,4.00
2019-04-14T00:32:53.280Z,3.90
2019-04-14T00:34:44.203Z,3.90
2019-04-14T00:36:42.101Z,3.90
2019-04-14T00:38:26.484Z,3.90
2019-04-14T00:40:08.370Z,3.90
2019-04-14T00:41:52.674Z,3.80
2019-04-14T00:43:50.897Z,3.90
2019-04-14T00:45:37.082Z,3.90
2019-04-14T00:47:13.483Z,3.90
2019-04-14T00:48:47.396Z,3.90
2019-04-14T00:50:19.761Z,3.90
2019-04-14T00:51:52.840Z,4.00
2019-04-14T00:53:25.446Z,4.00
2019-04-14T00:54:58.728Z,4.00
2019-04-14T00:56:32.192Z,3.90
2019-04-14T00:58:04.581Z,3.90
2019-04-14T00:59:37.609Z,3.90
2019-04-14T01:01:11.112Z,4.00
2019-04-14T01:02:43.352Z,3.90
2019-04-14T01:04:16.472Z,3.90
2019-04-14T01:05:48.712Z,3.90
2019-04-14T01:07:21.630Z,3.90
2019-04-14T01:08:55.307Z,3.90
2019-04-14T01:10:27.906Z,3.90
2019-04-14T01:12:00.320Z,3.90
2019-04-14T01:13:33.293Z,3.90
2019-04-14T01:15:07.092Z,3.90
2019-04-14T01:16:39.400Z,3.90
2019-04-14T01:18:12.575Z,3.90
2019-04-14T01:19:45.915Z,4.00
2019-04-14T01:21:19.551Z,3.90
2019-04-14T01:22:53.105Z,3.90
2019-04-14T01:24:25.322Z,3.90
2019-04-14T01:25:58.458Z,3.80
2019-04-14T01:27:31.785Z,3.80
2019-04-14T01:29:04.397Z,3.80
2019-04-14T01:30:37.298Z,3.70
2019-04-14T01:32:09.724Z,3.70
2019-04-14T01:33:42.287Z,3.80
2019-04-14T01:35:15.860Z,3.70
2019-04-14T01:36:48.106Z,3.80
2019-04-14T01:38:21.181Z,3.80
2019-04-14T01:39:54.586Z,3.80
2019-04-14T01:41:28.114Z,3.80
2019-04-14T01:43:01.601Z,3.70
2019-04-14T01:44:35.247Z,3.60
2019-04-14T01:46:16.152Z,3.60
2019-04-14T01:47:42.074Z,3.60
2019-04-14T01:49:14.395Z,3.60
2019-04-14T01:51:00.940Z,3.60
2019-04-14T01:52:52.297Z,3.50
2019-04-14T01:54:36.629Z,3.50
2019-04-14T01:56:29.532Z,3.40
2019-04-14T01:58:16.470Z,3.40
2019-04-14T01:59:48.663Z,3.30
2019-04-14T02:01:26.335Z,3.30
2019-04-14T02:02:59.507Z,3.20
2019-04-14T02:04:31.879Z,3.20
2019-04-14T02:06:04.779Z,3.20
2019-04-14T02:07:38.301Z,3.20
2019-04-14T02:09:12.059Z,3.10
2019-04-14T02:10:45.631Z,3.10
2019-04-14T02:12:19.004Z,3.10
2019-04-14T02:13:52.788Z,3.10
2019-04-14T02:15:26.507Z,3.10
2019-04-14T02:17:01.330Z,3.10
2019-04-14T02:18:33.995Z,3.00
2019-04-14T02:20:07.817Z,3.00
2019-04-14T02:21:41.258Z,2.90
2019-04-14T02:23:14.568Z,2.90
2019-04-14T02:24:48.098Z,2.90
2019-04-14T02:26:20.420Z,3.00
2019-04-14T02:27:53.680Z,3.00
2019-04-14T02:29:26.109Z,2.90
2019-04-14T02:31:10.308Z,2.90
2019-04-14T02:33:00.788Z,2.90
2019-04-14T02:34:42.108Z,2.90
2019-04-14T02:36:14.750Z,2.80
2019-04-14T02:37:34.568Z,2.90
2019-04-14T02:40:58.016Z,2.90
2019-04-14T02:44:41.017Z,2.90
2019-04-14T02:45:40.254Z,2.90
2019-04-14T02:47:34.110Z,3.00
2019-04-14T02:48:44.712Z,2.90
2019-04-14T02:50:14.202Z,2.90
2019-04-14T02:51:49.794Z,2.90
2019-04-14T02:53:23.765Z,2.90
2019-04-14T02:56:29.212Z,3.00
2019-04-14T02:58:11.657Z,3.00
2019-04-14T03:01:14.743Z,3.00
2019-04-14T03:02:42.639Z,3.00
2019-04-14T03:04:21.692Z,3.10
2019-04-14T03:06:12.584Z,3.10
2019-04-14T03:07:34.144Z,3.10
2019-04-14T03:09:10.804Z,3.10
2019-04-14T03:12:12.881Z,3.20
2019-04-14T03:13:45.443Z,3.20
2019-04-14T03:15:28.044Z,3.20
2019-04-14T03:17:25.384Z,3.30
2019-04-14T03:19:16.613Z,3.30
2019-04-14T03:21:20.010Z,3.30
2019-04-14T03:22:50.184Z,3.30
2019-04-14T03:24:37.538Z,3.40
2019-04-14T03:26:19.832Z,3.30
2019-04-14T03:28:10.375Z,3.30
2019-04-14T03:29:50.378Z,3.30
2019-04-14T03:31:51.819Z,3.30
2019-04-14T03:34:50.020Z,3.30
2019-04-14T03:36:30.362Z,3.30
2019-04-14T03:37:46.932Z,3.30
2019-04-14T03:40:45.213Z,3.30
2019-04-14T03:43:41.352Z,3.40
2019-04-14T03:45:30.010Z,3.30
2019-04-14T03:46:59.014Z,3.30
2019-04-14T03:51:48.596Z,3.40
2019-04-14T03:53:18.786Z,3.40
2019-04-14T03:54:42.983Z,3.30
2019-04-14T03:56:31.357Z,3.40
2019-04-14T03:58:03.822Z,3.40
2019-04-14T03:59:36.793Z,3.40
2019-04-14T04:01:09.021Z,3.50
2019-04-14T04:02:42.270Z,3.40
2019-04-14T04:04:14.684Z,3.40
2019-04-14T04:05:47.869Z,3.40
2019-04-14T04:07:21.337Z,3.40
2019-04-14T04:08:53.640Z,3.40
2019-04-14T04:10:27.038Z,3.40
2019-04-14T04:12:00.499Z,3.40
2019-04-14T04:13:32.873Z,3.40
2019-04-14T04:15:06.204Z,3.40
2019-04-14T04:16:59.364Z,3.50
2019-04-14T04:18:44.157Z,3.40
2019-04-14T04:20:19.735Z,3.50
2019-04-14T04:22:30.403Z,3.50
2019-04-14T04:24:33.200Z,3.40
2019-04-14T04:26:12.602Z,3.50
2019-04-14T04:28:08.062Z,3.40
2019-04-14T04:30:06.102Z,3.40
2019-04-14T04:31:58.934Z,3.40
2019-04-14T04:33:50.869Z,3.40
2019-04-14T04:35:30.350Z,3.40
2019-04-14T04:37:28.124Z,3.50
2019-04-14T04:39:08.207Z,3.50
2019-04-14T04:40:41.769Z,3.50
2019-04-14T04:42:15.397Z,3.50
2019-04-14T04:43:47.745Z,3.50
2019-04-14T04:45:19.920Z,3.40
2019-04-14T04:46:52.724Z,3.50
2019-04-14T04:48:26.301Z,3.50
2019-04-14T04:49:59.941Z,3.40
2019-04-14T04:51:33.217Z,3.50
2019-04-14T04:53:06.838Z,3.50
2019-04-14T04:54:39.264Z,3.50
2019-04-14T04:56:12.187Z,3.50
2019-04-14T04:57:44.551Z,3.50
2019-04-14T04:59:17.081Z,3.50
2019-04-14T05:00:51.469Z,3.50
2019-04-14T05:02:24.416Z,3.60
2019-04-14T05:03:57.877Z,3.60
2019-04-14T05:06:20.396Z,3.60
2019-04-14T05:07:51.273Z,3.60
2019-04-14T05:09:42.729Z,3.60
2019-04-14T05:11:27.328Z,3.60
2019-04-14T05:13:34.023Z,3.60
2019-04-14T05:15:27.073Z,3.60
2019-04-14T05:16:59.437Z,3.50
2019-04-14T05:18:31.549Z,3.60
2019-04-14T05:20:05.231Z,3.60
2019-04-14T05:21:38.692Z,3.60
2019-04-14T05:23:10.960Z,3.50
2019-04-14T05:24:44.009Z,3.60
2019-04-14T05:26:17.696Z,3.60
2019-04-14T05:27:50.169Z,3.60
2019-04-14T05:29:23.200Z,3.70
2019-04-14T05:30:56.772Z,3.70
2019-04-14T05:32:30.417Z,3.70
2019-04-14T05:34:02.925Z,3.80
2019-04-14T05:35:35.850Z,3.80
2019-04-14T05:37:09.078Z,3.80
2019-04-14T05:38:41.443Z,3.90
2019-04-14T05:40:14.581Z,3.90
2019-04-14T05:41:58.609Z,3.90
2019-04-14T05:43:30.253Z,4.00
2019-04-14T05:44:55.831Z,4.00
2019-04-14T05:46:28.057Z,4.00
2019-04-14T05:48:01.091Z,4.00
2019-04-14T05:49:39.157Z,4.00
2019-04-14T05:51:08.522Z,4.00
2019-04-14T05:52:40.782Z,4.00
2019-04-14T05:54:14.132Z,4.00
2019-04-14T05:55:46.482Z,3.90
2019-04-14T05:57:19.779Z,4.00
2019-04-14T05:58:52.132Z,3.90
2019-04-14T06:00:25.559Z,4.00
2019-04-14T06:01:57.927Z,3.90
2019-04-14T06:03:30.053Z,4.00
2019-04-14T06:05:02.191Z,4.00
2019-04-14T06:06:34.329Z,4.00
2019-04-14T06:08:06.612Z,4.00
2019-04-14T06:09:38.741Z,4.00
2019-04-14T06:11:11.055Z,4.00
2019-04-14T06:12:43.280Z,4.00
2019-04-14T06:14:15.415Z,4.00
2019-04-14T06:15:47.506Z,4.10
2019-04-14T06:17:19.741Z,4.10
2019-04-14T06:18:51.814Z,4.20
2019-04-14T06:20:23.919Z,4.20
2019-04-14T06:21:56.048Z,4.20
2019-04-14T06:23:28.340Z,4.20
2019-04-14T06:25:00.543Z,4.30
2019-04-14T06:26:32.767Z,4.30
2019-04-14T06:28:05.044Z,4.30
2019-04-14T06:29:37.370Z,4.40
2019-04-14T06:31:35.192Z,4.40
2019-04-14T06:33:33.939Z,4.40
2019-04-14T06:35:24.349Z,4.50
2019-04-14T06:37:11.418Z,4.50
2019-04-14T06:38:46.064Z,4.50
2019-04-14T06:40:18.700Z,4.60
2019-04-14T06:41:50.966Z,4.60
2019-04-14T06:43:23.122Z,4.60
2019-04-14T06:44:55.372Z,4.60
2019-04-14T06:46:27.616Z,4.60
2019-04-14T06:47:59.718Z,4.60
2019-04-14T06:49:31.977Z,4.60
2019-04-14T06:51:04.085Z,4.60
2019-04-14T06:52:36.164Z,4.70
2019-04-14T06:54:08.361Z,4.70
2019-04-14T06:55:40.497Z,4.70
2019-04-14T06:57:12.778Z,4.70
2019-04-14T06:58:44.911Z,4.70
2019-04-14T07:00:16.982Z,4.70
2019-04-14T07:01:49.227Z,4.80
2019-04-14T07:03:21.344Z,4.80
2019-04-14T07:04:53.570Z,4.80
2019-04-14T07:06:25.732Z,4.90
2019-04-14T07:07:58.124Z,5.00
2019-04-14T07:09:30.248Z,5.10
2019-04-14T07:11:02.452Z,5.20
2019-04-14T07:12:34.555Z,5.20
2019-04-14T07:14:06.679Z,5.20
2019-04-14T07:15:38.820Z,5.30
2019-04-14T07:17:10.975Z,5.40
2019-04-14T07:18:43.240Z,5.40
2019-04-14T07:20:15.349Z,5.50
2019-04-14T07:21:47.456Z,5.60
2019-04-14T07:23:19.709Z,5.60
2019-04-14T07:24:51.911Z,5.70
2019-04-14T07:26:24.127Z,5.80
2019-04-14T07:27:56.382Z,5.80
2019-04-14T07:29:34.182Z,5.80
2019-04-14T07:31:25.103Z,5.90
2019-04-14T07:33:16.822Z,5.90
2019-04-14T07:35:07.322Z,5.90
2019-04-14T07:37:04.777Z,6.00
2019-04-14T07:39:02.392Z,5.90
2019-04-14T07:41:03.035Z,5.90
2019-04-14T07:42:48.065Z,5.90
2019-04-14T07:44:42.364Z,5.90
2019-04-14T07:46:24.933Z,5.80
2019-04-14T07:48:04.682Z,5.80
2019-04-14T07:49:59.467Z,5.80
2019-04-14T07:51:37.490Z,5.80
2019-04-14T07:53:35.152Z,5.70
2019-04-14T07:55:39.029Z,5.60
2019-04-14T07:57:22.750Z,5.50
2019-04-14T07:59:06.373Z,5.50
2019-04-14T08:00:42.857Z,5.50
2019-04-14T08:02:46.586Z,5.60
2019-04-14T08:04:44.164Z,5.60
2019-04-14T08:06:16.401Z,5.60
2019-04-14T08:07:50.076Z,5.60
2019-04-14T08:09:22.176Z,5.70
2019-04-14T08:10:54.398Z,5.70
2019-04-14T08:12:26.612Z,5.70
2019-04-14T08:13:58.739Z,5.70
2019-04-14T08:15:30.818Z,5.80
2019-04-14T08:17:03.054Z,5.90
2019-04-14T08:18:35.274Z,6.00
2019-04-14T08:20:07.569Z,6.00
2019-04-14T08:21:39.877Z,6.10
2019-04-14T08:23:12.021Z,6.30
2019-04-14T08:24:44.102Z,6.50
2019-04-14T08:26:16.342Z,6.70
2019-04-14T08:27:48.509Z,7.00
2019-04-14T08:29:20.717Z,7.30
2019-04-14T08:30:52.975Z,7.70
2019-04-14T08:32:25.327Z,8.20
2019-04-14T08:33:57.528Z,8.60
2019-04-14T08:35:29.742Z,8.90
2019-04-14T08:37:01.812Z,9.30
2019-04-14T08:38:34.238Z,9.60
2019-04-14T08:40:06.437Z,9.90
2019-04-14T08:41:44.604Z,10.20
2019-04-14T08:43:40.152Z,10.50
2019-04-14T08:45:40.502Z,10.80
2019-04-14T08:47:32.255Z,11.20
2019-04-14T08:49:12.940Z,11.40
2019-04-14T08:51:11.919Z,11.60
2019-04-14T08:53:03.647Z,11.90
2019-04-14T08:54:41.564Z,12.20
2019-04-14T08:56:17.812Z,12.50
2019-04-14T08:57:53.640Z,12.80
2019-04-14T08:59:45.424Z,13.00
2019-04-14T09:01:24.680Z,13.20
2019-04-14T09:03:28.507Z,13.50
2019-04-14T09:05:08.561Z,13.80
2019-04-14T09:06:46.815Z,14.00
2019-04-14T09:08:23.455Z,14.10
2019-04-14T09:09:59.758Z,14.20
2019-04-14T09:11:36.868Z,14.50
2019-04-14T09:13:09.231Z,14.80
2019-04-14T09:14:41.541Z,14.90
2019-04-14T09:16:13.736Z,14.90
2019-04-14T09:17:45.968Z,14.80
2019-04-14T09:19:18.077Z,14.70
2019-04-14T09:20:52.471Z,14.60
2019-04-14T09:22:24.992Z,14.50
2019-04-14T09:23:57.289Z,14.40
2019-04-14T09:25:29.540Z,14.40
2019-04-14T09:27:01.669Z,14.30
2019-04-14T09:28:33.941Z,14.30
2019-04-14T09:30:06.589Z,14.30
2019-04-14T09:31:38.834Z,14.20
2019-04-14T09:33:11.059Z,14.10
2019-04-14T09:34:43.352Z,14.20
2019-04-14T09:36:15.478Z,14.40
2019-04-14T09:37:47.705Z,14.70
2019-04-14T09:39:19.848Z,14.80
2019-04-14T09:40:52.001Z,14.70
2019-04-14T09:42:24.137Z,14.80
2019-04-14T09:43:56.300Z,14.90
2019-04-14T09:45:28.458Z,15.00
2019-04-14T09:47:00.598Z,15.10
2019-04-14T09:48:32.853Z,15.20
2019-04-14T09:50:05.612Z,15.30
2019-04-14T09:51:38.522Z,15.30
2019-04-14T09:53:10.807Z,15.30
2019-04-14T09:54:51.558Z,15.40
2019-04-14T09:56:23.895Z,15.70
2019-04-14T09:57:56.177Z,15.80
2019-04-14T09:59:28.319Z,15.80
2019-04-14T10:01:00.616Z,15.80
2019-04-14T10:02:32.874Z,16.00
2019-04-14T10:04:05.014Z,16.10
2019-04-14T10:05:37.282Z,16.20
2019-04-14T10:07:09.509Z,16.30
2019-04-14T10:08:41.829Z,16.30
2019-04-14T10:10:13.978Z,16.40
2019-04-14T10:11:49.267Z,16.30
2019-04-14T10:13:20.287Z,16.10
2019-04-14T10:14:52.535Z,15.90
2019-04-14T10:16:24.684Z,15.70
2019-04-14T10:17:56.899Z,15.40
2019-04-14T10:19:29.177Z,15.20
2019-04-14T10:21:01.411Z,15.10
2019-04-14T10:22:34.478Z,15.30
2019-04-14T10:24:06.769Z,15.20
2019-04-14T10:25:39.015Z,15.20
2019-04-14T10:27:11.284Z,15.40
2019-04-14T10:28:43.428Z,15.50
2019-04-14T10:30:15.648Z,15.30
2019-04-14T10:31:47.769Z,15.00
2019-04-14T10:33:19.863Z,15.10
2019-04-14T10:34:51.985Z,15.40
2019-04-14T10:36:24.115Z,15.60
2019-04-14T10:37:56.362Z,15.60
2019-04-14T10:39:28.470Z,15.60
2019-04-14T10:41:00.629Z,15.70
2019-04-14T10:42:32.872Z,15.50
2019-04-14T10:44:05.155Z,15.30
2019-04-14T10:45:37.473Z,15.10
2019-04-14T10:47:09.839Z,15.00
2019-04-14T10:48:42.053Z,15.00
2019-04-14T10:50:14.146Z,15.00
2019-04-14T10:51:46.287Z,15.10
2019-04-14T10:53:18.621Z,14.90
2019-04-14T10:54:50.749Z,14.70
2019-04-14T10:56:22.894Z,14.40
2019-04-14T10:57:55.039Z,14.20
2019-04-14T10:59:27.400Z,14.10
2019-04-14T11:00:59.617Z,14.10
2019-04-14T11:02:31.780Z,14.10
2019-04-14T11:04:03.988Z,14.00
2019-04-14T11:05:58.256Z,14.00
2019-04-14T11:07:31.417Z,14.00
2019-04-14T11:09:05.792Z,14.10
2019-04-14T11:10:38.046Z,14.30
2019-04-14T11:12:10.158Z,14.70
2019-04-14T11:13:42.260Z,15.00
2019-04-14T11:15:15.579Z,15.20
2019-04-14T11:16:48.083Z,15.40
2019-04-14T11:18:20.332Z,15.40
2019-04-14T11:19:52.502Z,15.30
2019-04-14T11:21:24.742Z,15.20
2019-04-14T11:23:03.253Z,14.90
2019-04-14T11:24:31.032Z,14.60
2019-04-14T11:26:03.276Z,14.50
2019-04-14T11:27:35.421Z,14.50
2019-04-14T11:29:07.648Z,14.50
2019-04-14T11:30:39.966Z,14.50
2019-04-14T11:32:30.317Z,14.50
2019-04-14T11:34:03.076Z,14.70
2019-04-14T11:35:43.268Z,14.90
2019-04-14T11:37:40.820Z,15.20
2019-04-14T11:39:14.112Z,15.50
2019-04-14T11:40:48.573Z,15.80
2019-04-14T11:42:20.948Z,15.90
2019-04-14T11:43:53.318Z,16.10
2019-04-14T11:45:25.546Z,16.20
2019-04-14T11:46:57.736Z,16.20
2019-04-14T11:48:30.229Z,16.20
2019-04-14T11:50:03.451Z,16.20
2019-04-14T11:51:37.011Z,16.00
2019-04-14T11:53:09.077Z,15.90
2019-04-14T11:54:41.328Z,15.70
2019-04-14T11:56:13.656Z,15.50
2019-04-14T11:57:46.004Z,15.30
2019-04-14T11:59:20.404Z,15.20
2019-04-14T12:01:18.333Z,15.00
2019-04-14T12:03:01.503Z,14.90
2019-04-14T12:04:40.180Z,14.70
2019-04-14T12:06:30.702Z,14.60
2019-04-14T12:08:18.126Z,14.60
2019-04-14T12:10:09.858Z,14.50
2019-04-14T12:11:42.096Z,14.50
2019-04-14T12:13:14.217Z,14.40
2019-04-14T12:14:46.771Z,14.40
2019-04-14T12:16:18.926Z,14.20
2019-04-14T12:17:51.225Z,14.00
2019-04-14T12:19:23.340Z,13.90
2019-04-14T12:20:55.576Z,13.80
2019-04-14T12:22:27.711Z,13.80
2019-04-14T12:23:59.966Z,13.70
2019-04-14T12:25:32.083Z,13.60
2019-04-14T12:27:04.171Z,13.50
2019-04-14T12:28:36.448Z,13.50
2019-04-14T12:30:11.136Z,13.40
2019-04-14T12:31:44.404Z,13.30
2019-04-14T12:33:16.536Z,13.20
2019-04-14T12:34:48.686Z,13.20
2019-04-14T12:36:21.004Z,13.20
2019-04-14T12:37:53.135Z,13.20
2019-04-14T12:39:25.258Z,13.10
2019-04-14T12:41:00.426Z,13.10
2019-04-14T12:42:51.592Z,13.00
2019-04-14T12:44:41.918Z,12.90
2019-04-14T12:46:32.072Z,12.80
2019-04-14T12:48:19.024Z,12.80
2019-04-14T12:49:51.598Z,12.80
2019-04-14T12:51:30.814Z,12.80
2019-04-14T12:53:03.084Z,12.80
2019-04-14T12:54:35.162Z,12.80
2019-04-14T12:56:07.275Z,12.90
2019-04-14T12:57:46.899Z,12.90
2019-04-14T12:59:22.952Z,12.90
2019-04-14T13:00:58.715Z,13.00
2019-04-14T13:02:34.248Z,13.10
2019-04-14T13:04:06.376Z,13.10
2019-04-14T13:05:38.580Z,13.00
2019-04-14T13:07:10.904Z,13.00
2019-04-14T13:08:43.200Z,13.10
2019-04-14T13:10:15.299Z,13.10
2019-04-14T13:11:47.564Z,13.10
2019-04-14T13:13:19.792Z,13.10
2019-04-14T13:14:52.050Z,13.20
2019-04-14T13:16:24.234Z,13.20
2019-04-14T13:17:56.399Z,13.10
2019-04-14T13:19:28.735Z,13.00
2019-04-14T13:21:00.848Z,12.90
2019-04-14T13:22:34.359Z,13.00
2019-04-14T13:24:06.676Z,13.00
2019-04-14T13:25:38.895Z,12.90
2019-04-14T13:27:11.347Z,12.80
2019-04-14T13:28:43.436Z,12.80
2019-04-14T13:30:17.601Z,12.80
2019-04-14T13:31:49.751Z,12.70
2019-04-14T13:33:21.908Z,12.70
2019-04-14T13:34:54.086Z,12.70
2019-04-14T13:36:26.361Z,12.70
2019-04-14T13:37:58.649Z,12.50
2019-04-14T13:39:30.905Z,12.40
2019-04-14T13:41:03.611Z,12.40
2019-04-14T13:42:35.845Z,12.30
2019-04-14T13:44:07.952Z,12.30
2019-04-14T13:45:40.118Z,12.40
2019-04-14T13:47:12.264Z,12.40
2019-04-14T13:48:44.388Z,12.40
2019-04-14T13:50:16.619Z,12.40
2019-04-14T13:51:48.850Z,12.40
2019-04-14T13:53:20.940Z,12.30
2019-04-14T13:54:53.184Z,12.30
2019-04-14T13:56:27.723Z,12.20
2019-04-14T13:57:59.970Z,12.20
2019-04-14T13:59:32.296Z,12.20
2019-04-14T14:01:04.591Z,12.20
2019-04-14T14:02:36.838Z,12.20
2019-04-14T14:04:09.055Z,12.30
2019-04-14T14:05:43.474Z,12.30
2019-04-14T14:07:15.152Z,12.30
2019-04-14T14:08:47.324Z,12.30
2019-04-14T14:10:19.513Z,12.30
2019-04-14T14:11:57.185Z,12.30
2019-04-14T14:13:48.914Z,12.20
2019-04-14T14:15:46.875Z,12.10
2019-04-14T14:17:31.653Z,12.00
2019-04-14T14:19:23.356Z,12.00
2019-04-14T14:21:13.425Z,11.90
2019-04-14T14:23:04.088Z,11.90
2019-04-14T14:24:52.792Z,11.90
2019-04-14T14:26:26.260Z,11.90
2019-04-14T14:27:58.396Z,11.80
2019-04-14T14:29:30.652Z,11.80
2019-04-14T14:31:03.229Z,11.80
2019-04-14T14:32:35.787Z,11.80
2019-04-14T14:34:08.142Z,11.70
2019-04-14T14:35:40.225Z,11.70
2019-04-14T14:37:12.552Z,11.70
2019-04-14T14:38:44.723Z,11.60
2019-04-14T14:40:16.972Z,11.70
2019-04-14T14:41:49.236Z,11.70
2019-04-14T14:43:21.308Z,11.80
2019-04-14T14:45:06.934Z,11.80
2019-04-14T14:46:58.638Z,11.80
2019-04-14T14:48:56.221Z,11.80
2019-04-14T14:50:34.208Z,11.80
2019-04-14T14:52:11.176Z,11.80
2019-04-14T14:53:43.405Z,11.70
2019-04-14T14:55:15.688Z,11.80
2019-04-14T14:56:47.920Z,11.70
2019-04-14T14:58:20.152Z,11.70
2019-04-14T14:59:52.409Z,11.70
2019-04-14T15:01:24.612Z,11.70
2019-04-14T15:02:56.729Z,11.70
2019-04-14T15:04:28.932Z,11.70
2019-04-14T15:06:01.223Z,11.60
2019-04-14T15:07:33.484Z,11.70
2019-04-14T15:09:05.982Z,11.60
2019-04-14T15:10:38.096Z,11.60
2019-04-14T15:12:10.238Z,11.60
2019-04-14T15:13:42.462Z,11.60
2019-04-14T15:15:14.683Z,11.60
2019-04-14T15:16:46.837Z,11.50
2019-04-14T15:18:19.137Z,11.50
2019-04-14T15:19:51.287Z,11.40
2019-04-14T15:21:23.504Z,11.40
2019-04-14T15:22:55.775Z,11.50
2019-04-14T15:24:27.870Z,11.50
2019-04-14T15:26:00.245Z,11.50
2019-04-14T15:27:32.471Z,11.50
2019-04-14T15:29:04.535Z,11.50
2019-04-14T15:30:36.790Z,11.40
2019-04-14T15:32:09.041Z,11.40
2019-04-14T15:33:41.172Z,11.40
2019-04-14T15:35:13.397Z,11.40
2019-04-14T15:36:45.615Z,11.40
2019-04-14T15:38:17.733Z,11.40
2019-04-14T15:39:49.982Z,11.30
2019-04-14T15:41:22.228Z,11.30
2019-04-14T15:42:54.531Z,11.30
2019-04-14T15:44:26.607Z,11.40
2019-04-14T15:45:58.832Z,11.30
2019-04-14T15:47:31.059Z,11.30
2019-04-14T15:49:03.335Z,11.20
2019-04-14T15:50:35.557Z,11.20
2019-04-14T15:52:07.946Z,11.20
2019-04-14T15:53:40.055Z,11.20
2019-04-14T15:55:13.007Z,11.20
2019-04-14T15:56:54.607Z,11.10
2019-04-14T15:58:38.331Z,11.20
2019-04-14T16:00:22.712Z,11.10
2019-04-14T16:02:18.232Z,11.10
2019-04-14T16:04:01.281Z,11.00
2019-04-14T16:05:44.296Z,11.00
2019-04-14T16:07:38.283Z,11.00
2019-04-14T16:09:32.619Z,10.90
2019-04-14T16:11:12.971Z,10.80
2019-04-14T16:12:49.576Z,10.60
2019-04-14T16:14:44.181Z,10.60
2019-04-14T16:16:54.433Z,10.60
2019-04-14T16:18:44.806Z,10.50
2019-04-14T16:20:20.846Z,10.60
2019-04-14T16:21:52.980Z,10.50
2019-04-14T16:23:25.110Z,10.40
2019-04-14T16:24:57.375Z,10.30
2019-04-14T16:26:42.477Z,10.30
2019-04-14T16:28:19.195Z,10.30
2019-04-14T16:30:16.606Z,10.20
2019-04-14T16:32:11.914Z,10.10
2019-04-14T16:34:18.837Z,10.00
2019-04-14T16:35:51.347Z,9.80
2019-04-14T16:37:23.571Z,9.80
2019-04-14T16:38:55.735Z,9.70
2019-04-14T16:40:27.960Z,9.60
2019-04-14T16:42:00.168Z,9.60
2019-04-14T16:43:32.243Z,9.50
2019-04-14T16:45:05.142Z,9.50
2019-04-14T16:46:37.504Z,9.50
2019-04-14T16:48:09.612Z,9.40
2019-04-14T16:49:41.862Z,9.40
2019-04-14T16:51:19.730Z,9.30
2019-04-14T16:52:56.251Z,9.20
2019-04-14T16:54:50.528Z,9.30
2019-04-14T16:56:41.943Z,9.20
2019-04-14T16:58:33.680Z,9.20
2019-04-14T17:00:07.453Z,9.20
2019-04-14T17:01:42.010Z,9.30
2019-04-14T17:03:14.148Z,9.20
2019-04-14T17:04:46.310Z,9.20
2019-04-14T17:06:18.434Z,9.20
2019-04-14T17:07:53.410Z,9.20
2019-04-14T17:09:24.663Z,9.10
2019-04-14T17:10:56.743Z,9.10
2019-04-14T17:12:28.940Z,9.10
2019-04-14T17:14:05.122Z,9.00
2019-04-14T17:15:47.576Z,9.00
2019-04-14T17:17:31.944Z,8.90
2019-04-14T17:19:18.692Z,8.90
2019-04-14T17:21:10.442Z,8.80
2019-04-14T17:23:04.996Z,8.80
2019-04-14T17:24:56.786Z,8.70
2019-04-14T17:26:54.288Z,8.60
2019-04-14T17:28:55.037Z,8.60
2019-04-14T17:30:46.792Z,8.50
2019-04-14T17:32:41.048Z,8.50
2019-04-14T17:34:17.453Z,8.40
2019-04-14T17:35:59.367Z,8.30
2019-04-14T17:37:47.457Z,8.30
2019-04-14T17:39:31.776Z,8.30
2019-04-14T17:41:26.139Z,8.20
2019-04-14T17:43:09.041Z,8.10
2019-04-14T17:45:06.776Z,8.10
2019-04-14T17:47:01.299Z,8.00
2019-04-14T17:48:51.147Z,7.90
2019-04-14T17:50:41.066Z,7.90
2019-04-14T17:52:29.857Z,7.80
2019-04-14T17:54:11.880Z,7.80
2019-04-14T17:55:50.282Z,7.80
2019-04-14T17:57:48.121Z,7.80
2019-04-14T17:59:25.338Z,7.70
2019-04-14T18:01:28.847Z,7.70
2019-04-14T18:03:04.554Z,7.70
2019-04-14T18:04:59.092Z,7.60
2019-04-14T18:06:39.228Z,7.60
2019-04-14T18:08:17.264Z,7.60
2019-04-14T18:10:12.075Z,7.60
2019-04-14T18:12:06.624Z,7.50
2019-04-14T18:13:57.116Z,7.50
2019-04-14T18:15:47.812Z,7.40
2019-04-14T18:17:27.919Z,7.40
2019-04-14T18:19:28.708Z,7.30
2019-04-14T18:21:03.872Z,7.20
2019-04-14T18:22:36.000Z,7.20
2019-04-14T18:24:08.236Z,7.20
2019-04-14T18:25:40.491Z,7.10
2019-04-14T18:27:12.601Z,7.10
2019-04-14T18:29:02.842Z,7.00
2019-04-14T18:30:40.789Z,7.10
2019-04-14T18:32:21.230Z,7.00
2019-04-14T18:33:59.631Z,7.00
2019-04-14T18:35:41.201Z,7.00
2019-04-14T18:37:28.615Z,6.90
2019-04-14T18:39:29.926Z,6.90
2019-04-14T18:41:24.358Z,6.90
2019-04-14T18:43:11.150Z,6.90
2019-04-14T18:45:05.126Z,6.90
2019-04-14T18:46:55.562Z,6.90
2019-04-14T18:48:42.239Z,6.80
2019-04-14T18:50:19.859Z,6.90
2019-04-14T18:52:08.001Z,6.80
2019-04-14T18:53:58.503Z,6.80
2019-04-14T18:55:51.163Z,6.70
2019-04-14T18:57:28.069Z,6.70
2019-04-14T18:59:18.515Z,6.70
2019-04-14T19:00:53.489Z,6.70
2019-04-14T19:02:25.711Z,6.60
2019-04-14T19:03:58.099Z,6.60
2019-04-14T19:05:31.763Z,6.60
2019-04-14T19:07:04.301Z,6.60
2019-04-14T19:08:36.675Z,6.60
2019-04-14T19:10:09.124Z,6.60
2019-04-14T19:11:47.916Z,6.60
2019-04-14T19:13:24.327Z,6.60
2019-04-14T19:15:02.780Z,6.60
2019-04-14T19:16:40.785Z,6.60
2019-04-14T19:18:16.524Z,6.50
2019-04-14T19:20:00.795Z,6.50
2019-04-14T19:21:27.501Z,6.50
2019-04-14T19:22:59.613Z,6.40
2019-04-14T19:24:31.711Z,6.40
2019-04-14T19:26:04.216Z,6.40
2019-04-14T19:27:36.452Z,6.40
2019-04-14T19:29:08.536Z,6.40
2019-04-14T19:30:40.652Z,6.40
2019-04-14T19:32:12.887Z,6.30
2019-04-14T19:33:45.155Z,6.30
2019-04-14T19:35:17.852Z,6.30
2019-04-14T19:36:49.974Z,6.30
2019-04-14T19:38:22.114Z,6.30
2019-04-14T19:39:54.365Z,6.30
2019-04-14T19:41:26.669Z,6.20
2019-04-14T19:42:58.855Z,6.20
2019-04-14T19:44:31.051Z,6.30
2019-04-14T19:46:03.296Z,6.20
2019-04-14T19:47:35.544Z,6.20
2019-04-14T19:49:07.821Z,6.20
2019-04-14T19:50:40.088Z,6.20
2019-04-14T19:52:12.188Z,6.20
2019-04-14T19:53:44.320Z,6.20
2019-04-14T19:55:20.510Z,6.20
2019-04-14T19:56:50.646Z,6.20
2019-04-14T19:58:23.017Z,6.20
2019-04-14T19:59:55.464Z,6.20
2019-04-14T20:01:27.704Z,6.20
2019-04-14T20:02:59.850Z,6.20
2019-04-14T20:04:31.987Z,6.20
2019-04-14T20:06:04.251Z,6.20
2019-04-14T20:07:36.537Z,6.30
2019-04-14T20:09:08.700Z,6.30
2019-04-14T20:10:41.019Z,6.30
2019-04-14T20:12:14.486Z,6.20
2019-04-14T20:13:46.703Z,6.30
2019-04-14T20:15:24.559Z,6.20
2019-04-14T20:17:10.910Z,6.20
2019-04-14T20:19:10.249Z,6.20
2019-04-14T20:21:03.360Z,6.10
2019-04-14T20:23:00.975Z,6.10
2019-04-14T20:24:36.814Z,6.00
2019-04-14T20:26:27.127Z,6.00
2019-04-14T20:28:06.292Z,6.00
2019-04-14T20:29:41.813Z,6.10
2019-04-14T20:31:30.437Z,6.10
2019-04-14T20:33:02.835Z,6.10
2019-04-14T20:34:35.216Z,6.00
2019-04-14T20:36:08.492Z,6.00
2019-04-14T20:37:40.652Z,6.00
2019-04-14T20:39:17.592Z,5.90
2019-04-14T20:40:49.862Z,5.90
2019-04-14T20:42:22.102Z,5.90
2019-04-14T20:43:54.390Z,5.90
2019-04-14T20:45:26.477Z,5.80
2019-04-14T20:46:58.699Z,5.80
2019-04-14T20:48:31.040Z,5.80
2019-04-14T20:50:04.330Z,5.80
2019-04-14T20:51:36.664Z,5.90
2019-04-14T20:53:08.820Z,5.90
2019-04-14T20:54:40.943Z,5.90
2019-04-14T20:56:13.228Z,5.90
2019-04-14T20:57:45.557Z,5.90
2019-04-14T20:59:17.777Z,5.90
2019-04-14T21:00:49.839Z,5.90
2019-04-14T21:02:47.732Z,5.90
2019-04-14T21:04:42.264Z,5.80
2019-04-14T21:06:36.640Z,5.80
2019-04-14T21:08:27.124Z,5.70
2019-04-14T21:10:05.116Z,5.70
2019-04-14T21:11:47.428Z,5.60
2019-04-14T21:13:26.848Z,5.70
2019-04-14T21:15:18.629Z,5.60
2019-04-14T21:17:05.610Z,5.60
2019-04-14T21:19:03.392Z,5.60
2019-04-14T21:20:47.160Z,5.60
2019-04-14T21:22:35.148Z,5.50
2019-04-14T21:24:25.853Z,5.50
2019-04-14T21:26:02.758Z,5.50
2019-04-14T21:27:57.236Z,5.50
2019-04-14T21:29:43.632Z,5.50
2019-04-14T21:31:28.798Z,5.40
2019-04-14T21:33:20.538Z,5.40